Carbon Cliff, IL (61239)

6:18 PM CDT on August 26, 2016 (GMT -0500)
Colona Weather | | Change Station

Elev 580 ft 41.47 °N, 90.36 °W | Updated 7 seconds ago

Partly Cloudy
Partly Cloudy
78.2 °F
Feels Like 80 °F
N
0.0
Wind Variable Wind from NE
Gusts 0.0 mph

Today
High -- | Low -- °F
--% Chance of Precip.
Yesterday
High -- | Low -- °F
Precip. -- in
Pressure 30.06 in
Visibility 10.0 miles
Clouds Few 12000 ft
Heat Index 80 °F
Dew Point 68 °F
Humidity 71%
Rainfall 0.00 in
Snow Depth Not available.
6:22 AM 7:43 PM
Waning Crescent, 30% visible
METAR KMLI 262252Z 09007KT 10SM FEW120 26/18 A3007 RMK AO2 SLP180 T02560178
Pressure 30.06 in
Visibility 10.0 miles
Clouds Few 12000 ft
Heat Index 80 °F
Dew Point 68 °F
Humidity 71%
Rainfall 0.00 in
Snow Depth Not available.
6:22 AM 7:43 PM
Waning Crescent, 30% visible
METAR KMLI 262252Z 09007KT 10SM FEW120 26/18 A3007 RMK AO2 SLP180 T02560178

10-Day Weather Forecast

Almanac

Astronomy

Aug. 26, 2016 Rise Set
Actual Time
Civil Twilight
Nautical Twilight
Astronomical Twilight
Moon
Length of Visible Light
Length of Day
Tomorrow will be .
, % of the Moon is Illuminated

Today's Extremes

State Highs State Lows

Community

WunderPhotos

Upload Photos

1,935,254 photos uploaded!

WunderBlog® & News

Nearby

Air Quality

  Air Quality AQ Index Pollutant
Not available.

Snow Depth

Station Depth Elevation

Earthquake Activity

City Distance Mag. Time & Date
Minimum magnitude displayed is 2.5.

Coastal Water Temperatures

Place Temperature

Stations

Nearby Weather Stations

Station Location Temp. Windchill Dew Point Humidity Wind Precip. Elev Updated Type
                   

Watches & Warnings

There are currently no watches in effect.